Time;durP1;ratioP1;P1;durP2;ratioP2;P2;SDS_P1;SDS_P2;PMS_P1;PMS_P2;Temp;Humidity;BMP_temperature;BMP_pressure;BME280_temperature;BME280_humidity;BME280_pressure;Samples;Min_cycle;Max_cycle;Signal;HPM_P1;HPM_P2
2022/11/11 00:00:39;;;;;;;;;;;;;;;18.75;67.18;100029.81;2099854;28;19923;-55
2022/11/11 00:01:41;;;;;;;;;;;;;;;18.75;66.89;100032.50;2098166;28;20050;-51
2022/11/11 00:02:41;;;;;;;;;;;;;;;18.75;66.98;100035.19;2107791;28;19927;-51
2022/11/11 00:03:43;;;;;;;;;;;;;;;18.74;67.39;100034.31;2108862;28;19923;-53
2022/11/11 00:04:43;;;;;;;;;;;;;;;18.74;67.14;100030.78;2102326;28;19939;-56
2022/11/11 00:05:45;;;;;;;;;;;;;;;18.73;67.07;100029.09;2099498;27;20425;-52
2022/11/11 00:06:46;;;;;;;;;;;;;;;18.73;67.00;100029.94;2099605;28;19946;-54
2022/11/11 00:07:47;;;;;;;;;;;;;;;18.74;67.01;100036.16;2100117;28;19920;-55
2022/11/11 00:08:49;;;;;;;;;;;;;;;18.73;67.28;100029.94;2098864;28;19928;-51
2022/11/11 00:09:51;;;;;;;;;;;;;;;18.74;67.11;100033.47;2099349;28;20254;-46
2022/11/11 00:10:51;;;;;;;;;;;;;;;18.74;67.27;100033.47;2098880;28;19923;-47
2022/11/11 00:11:53;;;;;;;;;;;;;;;18.73;67.08;100039.84;2101292;28;19924;-55
2022/11/11 00:12:53;;;;;;;;;;;;;;;18.71;66.88;100040.00;2097034;28;19931;-51
2022/11/11 00:13:55;;;;;;;;;;;;;;;18.73;67.26;100042.53;2098917;28;20295;-52
2022/11/11 00:14:55;;;;;;;;;;;;;;;18.73;67.29;100047.91;2101731;28;19924;-52
2022/11/11 00:15:57;;;;;;;;;;;;;;;18.71;67.27;100044.53;2102740;28;19928;-51
2022/11/11 00:25:08;;;;;;;;;;;;;;;18.70;67.02;100054.47;2096723;28;19927;-52
2022/11/11 00:26:09;;;;;;;;;;;;;;;18.69;67.02;100057.31;2097709;28;19931;-50
2022/11/11 00:27:12;;;;;;;;;;;;;;;18.70;67.29;100061.69;2095972;28;19923;-49
2022/11/11 00:28:15;;;;;;;;;;;;;;;18.69;66.95;100055.47;2098988;28;21119;-51
2022/11/11 00:29:17;;;;;;;;;;;;;;;18.70;66.89;100064.38;2096534;28;19959;-50
2022/11/11 00:30:21;;;;;;;;;;;;;;;18.69;67.20;100055.47;2097456;28;19934;-56
2022/11/11 00:31:22;;;;;;;;;;;;;;;18.69;67.20;100060.00;2097908;28;20021;-48
2022/11/11 00:32:22;;;;;;;;;;;;;;;18.69;67.00;100058.16;2099942;28;19923;-56
2022/11/11 00:33:24;;;;;;;;;;;;;;;18.68;67.13;100061.00;2105910;28;20628;-45
2022/11/11 00:34:24;;;;;;;;;;;;;;;18.68;67.20;100064.53;2109470;28;19919;-48
2022/11/11 00:36:45;;;;;;;;;;;;;;;18.67;67.04;100062.03;2098076;28;20027;-47
2022/11/11 00:37:47;;;;;;;;;;;;;;;18.66;67.01;100061.16;2105329;28;19919;-49
2022/11/11 00:38:51;;;;;;;;;;;;;;;18.65;67.33;100067.56;2097488;28;19949;-53
2022/11/11 00:39:52;;;;;;;;;;;;;;;18.67;66.91;100062.03;2097145;28;20372;-51
2022/11/11 00:40:55;;;;;;;;;;;;;;;18.66;67.19;100069.22;2099021;28;19923;-52
2022/11/11 00:41:56;;;;;;;;;;;;;;;18.66;67.01;100069.22;2098505;28;20858;-52
2022/11/11 00:42:57;;;;;;;;;;;;;;;18.66;66.98;100063.03;2098427;28;20034;-55
2022/11/11 00:43:58;;;;;;;;;;;;;;;18.65;67.05;100061.34;2099117;28;19957;-53
2022/11/11 00:44:59;;;;;;;;;;;;;;;18.63;67.31;100061.50;2095476;28;20668;-50
2022/11/11 00:51:19;;;;;;;;;;;;;;;18.61;67.33;100065.38;2082996;28;20360;-48
2022/11/11 00:52:19;;;;;;;;;;;;;;;18.62;67.08;100062.53;2097701;28;19920;-54
2022/11/11 00:53:22;;;;;;;;;;;;;;;18.62;67.26;100064.38;2097981;28;19928;-50
2022/11/11 00:54:22;;;;;;;;;;;;;;;18.61;67.09;100065.38;2097936;28;19926;-51
2022/11/11 00:55:24;;;;;;;;;;;;;;;18.61;67.25;100068.06;2100523;28;19924;-50
2022/11/11 00:56:26;;;;;;;;;;;;;;;18.59;67.27;100065.56;2097067;28;20293;-54
2022/11/11 00:57:27;;;;;;;;;;;;;;;18.58;67.39;100069.22;2099392;28;20743;-51
2022/11/11 00:58:28;;;;;;;;;;;;;;;18.58;67.38;100065.72;2101985;28;19927;-48
2022/11/11 00:59:29;;;;;;;;;;;;;;;18.58;67.43;100063.03;2098073;28;19985;-56
2022/11/11 01:00:30;;;;;;;;;;;;;;;18.58;67.14;100065.72;2098617;28;19931;-56
2022/11/11 01:01:32;;;;;;;;;;;;;;;18.58;67.33;100065.72;2099470;28;19920;-47
2022/11/11 01:02:32;;;;;;;;;;;;;;;18.57;67.06;100070.25;2099133;28;19927;-49
2022/11/11 01:03:34;;;;;;;;;;;;;;;18.58;67.27;100065.72;2100332;28;19924;-48
2022/11/11 01:04:34;;;;;;;;;;;;;;;18.57;67.14;100064.03;2099040;28;19919;-49
2022/11/11 01:05:37;;;;;;;;;;;;;;;18.57;67.16;100067.56;2097612;28;21150;-46
2022/11/11 01:06:37;;;;;;;;;;;;;;;18.58;67.47;100069.22;2102498;28;19927;-47
2022/11/11 01:07:39;;;;;;;;;;;;;;;18.59;67.02;100067.41;2100641;27;20002;-46
2022/11/11 01:08:39;;;;;;;;;;;;;;;18.58;67.10;100074.59;2101646;28;19966;-47
2022/11/11 01:09:41;;;;;;;;;;;;;;;18.56;67.21;100073.13;2095908;28;19990;-47
2022/11/11 01:10:42;;;;;;;;;;;;;;;18.53;67.09;100074.28;2098741;28;20662;-46
2022/11/11 01:11:45;;;;;;;;;;;;;;;18.53;67.46;100074.28;2098607;28;19927;-46
2022/11/11 01:12:45;;;;;;;;;;;;;;;18.53;67.18;100074.28;2102430;28;19950;-47
2022/11/11 01:13:47;;;;;;;;;;;;;;;18.52;67.37;100081.50;2100225;28;19920;-46
2022/11/11 01:14:47;;;;;;;;;;;;;;;18.52;67.19;100076.13;2105510;28;19923;-47
2022/11/11 01:15:50;;;;;;;;;;;;;;;18.53;67.26;100077.81;2099179;28;20014;-49
2022/11/11 01:16:51;;;;;;;;;;;;;;;18.53;67.21;100075.13;2106692;28;20022;-48
2022/11/11 01:17:52;;;;;;;;;;;;;;;18.50;67.38;100075.47;2100102;28;19923;-50
2022/11/11 01:18:55;;;;;;;;;;;;;;;18.53;67.18;100077.81;2098677;28;19920;-48
2022/11/11 01:19:55;;;;;;;;;;;;;;;18.52;67.00;100075.28;2099567;28;19924;-46
2022/11/11 01:20:57;;;;;;;;;;;;;;;18.49;67.41;100079.16;2101561;28;20296;-47
2022/11/11 01:21:58;;;;;;;;;;;;;;;18.49;67.59;100084.50;2108201;28;19934;-47
2022/11/11 01:23:00;;;;;;;;;;;;;;;18.50;67.21;100077.31;2106609;28;20346;-47
2022/11/11 01:24:01;;;;;;;;;;;;;;;18.49;67.17;100079.16;2106168;28;20366;-49
2022/11/11 01:25:02;;;;;;;;;;;;;;;18.48;67.18;100079.31;2105636;28;20562;-47
2022/11/11 01:26:04;;;;;;;;;;;;;;;18.47;67.35;100074.94;2096759;28;19977;-47
2022/11/11 01:27:06;;;;;;;;;;;;;;;18.48;67.06;100077.47;2097664;28;19935;-46
2022/11/11 01:28:09;;;;;;;;;;;;;;;18.48;67.02;100082.84;2098849;28;19924;-48
2022/11/11 01:29:09;;;;;;;;;;;;;;;18.49;67.00;100081.00;2099242;28;19920;-47
2022/11/11 01:30:12;;;;;;;;;;;;;;;18.48;67.40;100077.47;2100171;28;19930;-46
2022/11/11 01:31:14;;;;;;;;;;;;;;;18.48;67.21;100082.84;2100767;28;19935;-50
2022/11/11 01:32:16;;;;;;;;;;;;;;;18.48;67.33;100073.97;2108669;28;19927;-49
2022/11/11 01:33:17;;;;;;;;;;;;;;;18.47;67.40;100073.13;2108380;28;20331;-47
2022/11/11 01:34:18;;;;;;;;;;;;;;;18.48;67.15;100071.28;2107418;28;19927;-47
2022/11/11 01:35:19;;;;;;;;;;;;;;;18.47;67.21;100067.75;2107978;28;19963;-47
2022/11/11 01:36:22;;;;;;;;;;;;;;;18.47;67.21;100070.44;2097297;28;19923;-46
2022/11/11 01:37:23;;;;;;;;;;;;;;;18.47;67.49;100065.06;2098103;28;23912;-48
2022/11/11 01:38:24;;;;;;;;;;;;;;;18.47;67.17;100070.44;2101669;28;19935;-47
2022/11/11 01:39:25;;;;;;;;;;;;;;;18.46;67.18;100065.22;2096083;28;19928;-46
2022/11/11 01:40:26;;;;;;;;;;;;;;;18.45;67.20;100067.06;2096137;28;19924;-50
2022/11/11 01:41:32;;;;;;;;;;;;;;;18.46;67.12;100067.91;2103058;28;19927;-46
2022/11/11 01:42:47;;;;;;;;;;;;;;;18.44;67.14;100060.03;2103845;28;19931;-49
2022/11/11 01:43:47;;;;;;;;;;;;;;;18.44;67.40;100065.41;2105197;28;20413;-47
2022/11/11 01:44:49;;;;;;;;;;;;;;;18.46;67.17;100062.53;2101368;28;19977;-47
2022/11/11 01:45:52;;;;;;;;;;;;;;;18.46;67.29;100067.91;2096664;28;20281;-47
2022/11/11 01:46:56;;;;;;;;;;;;;;;18.43;67.05;100063.69;2099215;28;20035;-47
2022/11/11 01:49:23;;;;;;;;;;;;;;;18.42;67.49;100064.72;2098048;28;19993;-47
2022/11/11 01:50:24;;;;;;;;;;;;;;;18.41;67.46;100057.66;2098925;28;19956;-47
2022/11/11 01:51:29;;;;;;;;;;;;;;;18.43;67.42;100057.50;2099586;28;19935;-49
2022/11/11 01:52:31;;;;;;;;;;;;;;;18.42;67.14;100062.03;2099075;28;19931;-49
2022/11/11 01:53:32;;;;;;;;;;;;;;;18.41;67.45;100060.34;2102871;28;19920;-48
2022/11/11 01:54:35;;;;;;;;;;;;;;;18.41;67.44;100059.50;2099708;28;19930;-47
2022/11/11 01:55:37;;;;;;;;;;;;;;;18.40;67.44;100060.53;2093215;28;19924;-48
2022/11/11 01:56:38;;;;;;;;;;;;;;;18.37;67.54;100055.47;2099743;28;26575;-47
2022/11/11 01:57:41;;;;;;;;;;;;;;;18.39;67.28;100057.00;2097441;28;19935;-46
2022/11/11 01:58:43;;;;;;;;;;;;;;;18.39;67.50;100057.00;2101938;28;20491;-49
2022/11/11 01:59:46;;;;;;;;;;;;;;;18.37;67.32;100048.25;2101696;28;19983;-47
2022/11/11 02:00:46;;;;;;;;;;;;;;;18.38;67.47;100049.09;2101061;28;19927;-47
2022/11/11 02:01:48;;;;;;;;;;;;;;;18.37;67.49;100053.63;2098575;27;19924;-47
2022/11/11 02:02:51;;;;;;;;;;;;;;;18.38;67.34;100051.78;2100132;28;19924;-47
2022/11/11 02:06:33;;;;;;;;;;;;;;;18.35;67.50;100049.44;2100035;28;20029;-47
2022/11/11 02:07:34;;;;;;;;;;;;;;;18.33;67.57;100044.25;2101845;28;19930;-48
2022/11/11 02:08:36;;;;;;;;;;;;;;;18.35;67.31;100049.44;2103748;28;19920;-46
2022/11/11 02:09:40;;;;;;;;;;;;;;;18.34;67.60;100047.75;2104617;28;19931;-46
2022/11/11 02:10:43;;;;;;;;;;;;;;;18.33;67.66;100043.38;2102997;28;19971;-47
2022/11/11 02:14:38;;;;;;;;;;;;;;;18.30;67.81;100052.59;2100572;28;20135;-47
2022/11/11 02:15:39;;;;;;;;;;;;;;;18.29;67.80;100053.63;2103248;28;19924;-47
2022/11/11 02:16:41;;;;;;;;;;;;;;;18.31;67.33;100059.69;2102989;27;20494;-46
2022/11/11 02:17:42;;;;;;;;;;;;;;;18.30;67.59;100044.56;2094417;28;19935;-47
2022/11/11 02:18:43;;;;;;;;;;;;;;;18.30;67.40;100042.72;2102417;28;19924;-47
2022/11/11 02:19:48;;;;;;;;;;;;;;;18.29;67.36;100046.41;2102785;28;19920;-46
2022/11/11 02:20:49;;;;;;;;;;;;;;;18.28;67.63;100039.38;2102463;28;20073;-47
2022/11/11 02:21:54;;;;;;;;;;;;;;;18.29;67.37;100040.19;2100806;28;20016;-47
2022/11/11 02:22:57;;;;;;;;;;;;;;;18.27;67.42;100043.03;2102640;28;19928;-49
2022/11/11 02:24:04;;;;;;;;;;;;;;;18.27;67.64;100039.50;2102662;27;20023;-46
2022/11/11 02:25:06;;;;;;;;;;;;;;;18.27;67.68;100040.34;2094976;28;19974;-47
2022/11/11 02:26:10;;;;;;;;;;;;;;;18.26;67.50;100043.22;2094894;28;19970;-46
2022/11/11 02:27:13;;;;;;;;;;;;;;;18.26;67.51;100045.91;2093232;28;20088;-48
2022/11/11 02:28:15;;;;;;;;;;;;;;;18.25;67.54;100039.69;2098053;28;20308;-46
2022/11/11 02:29:18;;;;;;;;;;;;;;;18.25;67.37;100044.25;2095730;28;19958;-48
2022/11/11 02:30:20;;;;;;;;;;;;;;;18.24;67.63;100051.44;2100016;28;21415;-47
2022/11/11 02:31:25;;;;;;;;;;;;;;;18.25;67.76;100046.94;2089060;28;19981;-47
2022/11/11 02:32:26;;;;;;;;;;;;;;;18.24;67.69;100046.06;2090832;28;20537;-47
2022/11/11 02:33:27;;;;;;;;;;;;;;;18.25;67.41;100049.63;2090559;28;21736;-47
2022/11/11 02:34:29;;;;;;;;;;;;;;;18.25;67.55;100044.25;2091605;28;19968;-47
2022/11/11 02:35:32;;;;;;;;;;;;;;;18.23;67.51;100041.72;2089573;28;20483;-46
2022/11/11 02:36:34;;;;;;;;;;;;;;;18.23;67.34;100041.72;2091718;28;19928;-47
2022/11/11 02:37:35;;;;;;;;;;;;;;;18.23;67.83;100046.25;2095866;28;19924;-47
2022/11/11 02:38:36;;;;;;;;;;;;;;;18.21;67.62;100043.72;2095929;27;20586;-47
2022/11/11 02:39:41;;;;;;;;;;;;;;;18.22;67.49;100049.91;2094972;28;19943;-48
2022/11/11 02:41:55;;;;;;;;;;;;;;;18.22;67.58;100047.22;2098722;28;20865;-48
2022/11/11 02:42:09;;;;;;;;;;;;;;;18.22;67.65;100049.91;2098227;28;22207;-48
2022/11/11 02:43:10;;;;;;;;;;;;;;;18.20;67.79;100039.34;2099663;28;20010;-47
2022/11/11 02:44:11;;;;;;;;;;;;;;;18.21;67.90;100042.88;2098327;28;19923;-47
2022/11/11 02:45:12;;;;;;;;;;;;;;;18.20;67.75;100038.53;2100468;28;20475;-47
2022/11/11 02:46:13;;;;;;;;;;;;;;;18.19;67.59;100045.75;2107525;28;20395;-47
2022/11/11 02:47:15;;;;;;;;;;;;;;;18.20;67.61;100046.59;2097066;28;19924;-48
2022/11/11 02:48:15;;;;;;;;;;;;;;;18.20;67.65;100051.94;2097844;28;20546;-47
2022/11/11 02:49:17;;;;;;;;;;;;;;;18.19;67.45;100056.50;2099681;28;19920;-46
2022/11/11 02:50:18;;;;;;;;;;;;;;;18.19;67.59;100050.25;2099935;28;20223;-47
2022/11/11 02:51:19;;;;;;;;;;;;;;;18.18;67.71;100049.41;2099389;28;19938;-48
2022/11/11 02:52:20;;;;;;;;;;;;;;;18.17;67.53;100053.13;2098891;28;20011;-47
2022/11/11 02:53:22;;;;;;;;;;;;;;;18.16;67.60;100053.28;2102208;28;19988;-49
2022/11/11 02:54:22;;;;;;;;;;;;;;;18.14;67.83;100047.25;2102900;27;19927;-47
2022/11/11 02:55:25;;;;;;;;;;;;;;;18.15;67.62;100052.44;2099196;28;19928;-46
2022/11/11 02:57:47;;;;;;;;;;;;;;;18.14;67.83;100047.25;2107417;28;19957;-47
2022/11/11 02:58:48;;;;;;;;;;;;;;;18.13;67.77;100046.38;2102145;28;19928;-49
2022/11/11 02:59:49;;;;;;;;;;;;;;;18.13;67.71;100045.56;2099852;28;19978;-46
2022/11/11 03:00:50;;;;;;;;;;;;;;;18.14;67.71;100058.00;2098788;28;19928;-47
2022/11/11 03:01:52;;;;;;;;;;;;;;;18.15;67.90;100054.28;2099590;28;20015;-47
2022/11/11 03:02:53;;;;;;;;;;;;;;;18.15;67.59;100059.66;2099434;28;20358;-48
2022/11/11 03:03:54;;;;;;;;;;;;;;;18.15;67.83;100059.66;2101610;28;19928;-48
2022/11/11 03:04:56;;;;;;;;;;;;;;;18.14;67.82;100076.78;2100524;27;19972;-47
2022/11/11 03:05:56;;;;;;;;;;;;;;;18.13;67.57;100075.09;2101339;28;20281;-47
2022/11/11 03:06:59;;;;;;;;;;;;;;;18.13;67.57;100067.88;2100067;28;19924;-46
2022/11/11 03:08:00;;;;;;;;;;;;;;;18.11;67.76;100069.91;2099108;27;19923;-47
2022/11/11 03:09:02;;;;;;;;;;;;;;;18.10;67.62;100078.94;2101455;27;20323;-47
2022/11/11 03:10:02;;;;;;;;;;;;;;;18.09;67.73;100070.06;2100086;28;20244;-48
2022/11/11 03:11:05;;;;;;;;;;;;;;;18.10;67.97;100078.94;2099193;28;19934;-47
2022/11/11 03:12:06;;;;;;;;;;;;;;;18.08;67.93;100076.44;2100700;28;19931;-51
2022/11/11 03:13:08;;;;;;;;;;;;;;;18.08;67.72;100087.19;2096952;27;20572;-49
2022/11/11 03:14:08;;;;;;;;;;;;;;;18.09;67.81;100083.47;2099386;28;20350;-46
2022/11/11 03:15:10;;;;;;;;;;;;;;;18.11;67.69;100079.78;2100141;28;19973;-45
2022/11/11 03:17:38;;;;;;;;;;;;;;;18.09;67.88;100085.34;2099845;28;20862;-47
2022/11/11 03:17:40;;;;;;;;;;;;;;;18.07;67.93;100085.47;2098686;28;19927;-48
2022/11/11 03:18:41;;;;;;;;;;;;;;;18.07;68.00;100085.47;2097639;28;20019;-47
2022/11/11 03:19:42;;;;;;;;;;;;;;;18.09;67.86;100082.66;2104830;28;19927;-46
2022/11/11 03:22:03;;;;;;;;;;;;;;;18.08;67.65;100097.91;2098704;28;19928;-47
2022/11/11 03:23:06;;;;;;;;;;;;;;;18.08;67.70;100097.91;2103918;28;19935;-45
2022/11/11 03:24:06;;;;;;;;;;;;;;;18.06;67.99;100089.19;2097682;28;20018;-46
2022/11/11 03:26:28;;;;;;;;;;;;;;;18.05;67.94;100098.25;2097501;28;19931;-47
2022/11/11 03:27:29;;;;;;;;;;;;;;;18.06;67.69;100091.88;2102158;28;19930;-46
2022/11/11 03:28:30;;;;;;;;;;;;;;;18.05;67.78;100098.25;2099471;28;19924;-45
2022/11/11 03:29:31;;;;;;;;;;;;;;;18.06;67.64;100096.41;2099202;28;19934;-46
2022/11/11 03:30:32;;;;;;;;;;;;;;;18.05;67.92;100097.38;2100337;27;19934;-47
2022/11/11 03:31:33;;;;;;;;;;;;;;;18.05;67.68;100090.19;2097542;28;19942;-47
2022/11/11 03:32:34;;;;;;;;;;;;;;;18.05;67.69;100082.13;2095678;28;19961;-48
2022/11/11 03:33:35;;;;;;;;;;;;;;;18.04;67.94;100085.81;2099224;28;20655;-45
2022/11/11 03:34:37;;;;;;;;;;;;;;;18.02;68.00;100087.81;2098848;28;20010;-47
2022/11/11 03:35:37;;;;;;;;;;;;;;;18.03;67.77;100076.09;2100768;28;19928;-46
2022/11/11 03:39:13;;;;;;;;;;;;;;;18.02;67.87;100081.59;2096736;28;19974;-46
2022/11/11 03:40:14;;;;;;;;;;;;;;;18.02;67.77;100081.59;2097281;28;19924;-46
2022/11/11 03:41:15;;;;;;;;;;;;;;;18.02;67.75;100087.81;2096321;28;20096;-47
2022/11/11 03:42:17;;;;;;;;;;;;;;;18.01;67.94;100086.16;2097801;28;20829;-48
2022/11/11 03:43:19;;;;;;;;;;;;;;;18.02;67.90;100085.13;2099331;28;19924;-45
2022/11/11 03:44:20;;;;;;;;;;;;;;;18.01;67.91;100090.69;2097009;28;19941;-46
2022/11/11 03:45:21;;;;;;;;;;;;;;;18.01;67.74;100083.47;2100073;28;19923;-45
2022/11/11 03:46:22;;;;;;;;;;;;;;;18.02;67.69;100086.97;2095095;28;19924;-49
2022/11/11 03:47:24;;;;;;;;;;;;;;;18.01;67.92;100083.47;2097710;28;20039;-45
2022/11/11 03:48:25;;;;;;;;;;;;;;;18.02;67.62;100093.19;2096967;28;19919;-49
2022/11/11 03:49:27;;;;;;;;;;;;;;;18.03;67.64;100094.88;2101465;28;19924;-46
2022/11/11 03:50:28;;;;;;;;;;;;;;;18.02;67.77;100086.97;2097110;28;19924;-48
2022/11/11 03:51:29;;;;;;;;;;;;;;;18.01;67.90;100090.69;2101440;28;19954;-46
2022/11/11 03:52:30;;;;;;;;;;;;;;;17.99;67.90;100090.00;2099237;28;19930;-49
2022/11/11 03:53:31;;;;;;;;;;;;;;;17.98;67.74;100091.84;2097640;28;19928;-47
2022/11/11 03:54:32;;;;;;;;;;;;;;;18.00;67.66;100094.38;2097619;28;19935;-45
2022/11/11 03:55:33;;;;;;;;;;;;;;;18.00;67.63;100089.84;2100036;28;19954;-47
2022/11/11 03:56:34;;;;;;;;;;;;;;;18.01;67.74;100093.38;2099236;28;19919;-46
2022/11/11 03:57:40;;;;;;;;;;;;;;;18.00;67.72;100091.69;2098771;28;19924;-47
2022/11/11 03:58:40;;;;;;;;;;;;;;;17.99;67.69;100090.00;2099952;28;19927;-46
2022/11/11 03:59:42;;;;;;;;;;;;;;;17.99;67.74;100088.16;2099426;28;19998;-45
2022/11/11 04:00:44;;;;;;;;;;;;;;;17.98;67.90;100091.84;2095789;28;19927;-47
2022/11/11 04:11:06;;;;;;;;;;;;;;;17.93;67.84;100091.50;2099279;28;19920;-46
2022/11/11 04:12:07;;;;;;;;;;;;;;;17.92;67.73;100089.81;2099415;28;19935;-45
2022/11/11 04:16:06;;;;;;;;;;;;;;;17.94;67.80;100095.88;2098997;28;20783;-47
2022/11/11 04:17:06;;;;;;;;;;;;;;;17.93;67.73;100094.19;2105760;28;19924;-45
2022/11/11 04:18:08;;;;;;;;;;;;;;;17.95;67.75;100105.59;2104068;28;19919;-46
2022/11/11 04:21:42;;;;;;;;;;;;;;;17.91;67.90;100104.22;2081598;28;19920;-47
2022/11/11 04:22:44;;;;;;;;;;;;;;;17.93;67.75;100107.59;2094242;28;19929;-46
2022/11/11 04:23:44;;;;;;;;;;;;;;;17.91;67.77;100106.91;2098333;28;19926;-47
2022/11/11 04:26:04;;;;;;;;;;;;;;;17.91;67.95;100106.91;2096504;28;19931;-44
2022/11/11 04:27:06;;;;;;;;;;;;;;;17.89;67.93;100103.56;2098681;28;19924;-48
2022/11/11 04:29:28;;;;;;;;;;;;;;;17.92;67.99;100102.41;2101283;28;20010;-45
2022/11/11 04:30:29;;;;;;;;;;;;;;;17.93;67.86;100106.75;2097574;28;19924;-47
2022/11/11 04:31:30;;;;;;;;;;;;;;;17.92;67.65;100110.47;2099129;27;20541;-46
2022/11/11 04:32:41;;;;;;;;;;;;;;;17.89;67.80;100100.88;2097888;28;19930;-46
2022/11/11 04:33:43;;;;;;;;;;;;;;;17.88;67.85;100107.25;2098388;28;20405;-45
2022/11/11 04:34:44;;;;;;;;;;;;;;;17.89;68.01;100103.56;2097989;28;20356;-47
2022/11/11 04:35:48;;;;;;;;;;;;;;;17.89;67.77;100100.06;2100902;28;19923;-48
2022/11/11 04:36:49;;;;;;;;;;;;;;;17.88;68.06;100109.09;2099018;28;19939;-45
2022/11/11 04:37:50;;;;;;;;;;;;;;;17.88;67.93;100101.03;2100207;28;19957;-49
2022/11/11 04:41:29;;;;;;;;;;;;;;;17.88;67.71;100101.88;2098362;28;20542;-47
2022/11/11 04:42:32;;;;;;;;;;;;;;;17.85;67.88;100102.19;2103850;28;19919;-48
2022/11/11 04:45:26;;;;;;;;;;;;;;;17.87;67.86;100094.84;2096237;28;19923;-49
2022/11/11 04:46:13;;;;;;;;;;;;;;;17.86;67.87;100098.53;2098638;28;20022;-50
2022/11/11 04:47:15;;;;;;;;;;;;;;;17.88;67.76;100087.63;2098916;28;20285;-45
2022/11/11 04:48:17;;;;;;;;;;;;;;;17.87;67.73;100100.19;2100067;28;19921;-47
2022/11/11 04:49:18;;;;;;;;;;;;;;;17.87;67.97;100105.56;2098085;27;19924;-45
2022/11/11 04:50:19;;;;;;;;;;;;;;;17.87;67.75;100100.19;2101577;28;19927;-46
2022/11/11 04:52:24;;;;;;;;;;;;;;;17.85;67.77;100099.53;2099004;28;20485;-45
2022/11/11 04:52:41;;;;;;;;;;;;;;;17.84;67.99;100106.72;2100614;28;20031;-45
2022/11/11 04:53:43;;;;;;;;;;;;;;;17.86;68.01;100101.22;2101785;28;20050;-47
2022/11/11 04:57:17;;;;;;;;;;;;;;;17.83;67.75;100107.75;2098493;28;19942;-45
2022/11/11 04:58:22;;;;;;;;;;;;;;;17.85;67.74;100107.56;2101891;28;20530;-46
2022/11/11 04:59:22;;;;;;;;;;;;;;;17.86;67.66;100109.28;2098527;28;19928;-46
2022/11/11 05:00:25;;;;;;;;;;;;;;;17.86;67.75;100109.28;2098961;27;19924;-45
2022/11/11 05:04:03;;;;;;;;;;;;;;;17.81;67.86;100107.06;2097530;28;20471;-49
2022/11/11 05:05:05;;;;;;;;;;;;;;;17.82;68.04;100102.53;2098283;28;19923;-47
2022/11/11 05:08:57;;;;;;;;;;;;;;;17.88;67.71;100112.59;2097326;28;20362;-46
2022/11/11 05:09:59;;;;;;;;;;;;;;;17.88;67.67;100111.78;2105393;28;19926;-47
2022/11/11 05:11:00;;;;;;;;;;;;;;;17.92;67.44;100115.84;2097167;28;20071;-47
2022/11/11 05:12:01;;;;;;;;;;;;;;;17.94;67.43;100111.97;2103580;28;19929;-46
2022/11/11 05:22:18;;;;;;;;;;;;;;;18.05;67.13;100117.03;2098496;28;19959;-46
2022/11/11 05:23:19;;;;;;;;;;;;;;;18.04;67.35;100118.03;2099069;28;20495;-47
2022/11/11 05:25:39;;;;;;;;;;;;;;;18.11;67.33;100117.38;2098351;28;19920;-46
2022/11/11 05:26:40;;;;;;;;;;;;;;;18.12;67.32;100116.38;2099543;28;20404;-46
2022/11/11 05:27:40;;;;;;;;;;;;;;;18.15;67.44;100116.06;2098860;28;19927;-47
2022/11/11 05:28:42;;;;;;;;;;;;;;;18.15;67.27;100118.75;2101730;28;19920;-47
2022/11/11 05:29:43;;;;;;;;;;;;;;;18.17;67.18;100116.75;2102601;28;20395;-49
2022/11/11 05:30:45;;;;;;;;;;;;;;;18.18;67.19;100115.72;2100175;27;20027;-46
2022/11/11 05:31:46;;;;;;;;;;;;;;;18.19;67.20;100114.69;2096440;27;22084;-45
2022/11/11 05:32:48;;;;;;;;;;;;;;;18.20;66.97;100119.91;2099661;27;19919;-47
2022/11/11 05:33:48;;;;;;;;;;;;;;;18.21;67.14;100115.38;2100189;28;20329;-47
2022/11/11 05:34:50;;;;;;;;;;;;;;;18.20;67.12;100116.41;2100941;28;20007;-46
2022/11/11 05:35:50;;;;;;;;;;;;;;;18.23;67.07;100121.44;2102086;27;19920;-46
2022/11/11 05:36:52;;;;;;;;;;;;;;;18.22;67.09;100117.06;2099150;27;19920;-44
2022/11/11 05:39:09;;;;;;;;;;;;;;;18.23;67.19;100121.44;2103134;27;20256;-45
2022/11/11 05:40:10;;;;;;;;;;;;;;;18.25;66.95;100127.50;2103494;27;20377;-47
2022/11/11 05:41:12;;;;;;;;;;;;;;;18.26;67.09;100126.47;2102530;27;19930;-45
2022/11/11 05:42:13;;;;;;;;;;;;;;;18.24;67.09;100129.31;2101938;27;20428;-45
2022/11/11 05:43:14;;;;;;;;;;;;;;;18.27;66.80;100128.97;2102560;27;19924;-47
2022/11/11 05:44:15;;;;;;;;;;;;;;;18.28;66.92;100127.16;2106533;27;19936;-44
2022/11/11 05:45:16;;;;;;;;;;;;;;;18.29;67.00;100126.97;2103954;27;19947;-47
2022/11/11 05:46:18;;;;;;;;;;;;;;;18.28;66.85;100125.31;2105290;27;19931;-45
2022/11/11 05:47:20;;;;;;;;;;;;;;;18.31;66.99;100129.50;2103876;27;19951;-48
2022/11/11 05:48:20;;;;;;;;;;;;;;;18.31;66.77;100132.19;2104629;27;19946;-46
2022/11/11 05:49:22;;;;;;;;;;;;;;;18.31;67.01;100127.66;2103211;27;19927;-45
2022/11/11 05:50:23;;;;;;;;;;;;;;;18.33;67.07;100126.66;2103794;27;20251;-46
2022/11/11 05:51:27;;;;;;;;;;;;;;;18.33;66.99;100129.34;2103775;27;19924;-47
2022/11/11 05:52:29;;;;;;;;;;;;;;;18.33;66.99;100124.81;2104857;27;19928;-47
2022/11/11 05:53:30;;;;;;;;;;;;;;;18.35;66.98;100130.84;2106915;27;21451;-48
2022/11/11 05:54:31;;;;;;;;;;;;;;;18.37;66.79;100138.75;2104300;27;19930;-48
2022/11/11 05:55:32;;;;;;;;;;;;;;;18.37;67.00;100138.75;2099638;27;19950;-46
2022/11/11 05:56:33;;;;;;;;;;;;;;;18.36;66.82;100132.56;2100449;27;20401;-46
2022/11/11 05:57:34;;;;;;;;;;;;;;;18.38;66.83;100141.25;2100445;27;19947;-47
2022/11/11 05:58:36;;;;;;;;;;;;;;;18.40;66.91;100146.47;2102315;27;19919;-48
2022/11/11 05:59:37;;;;;;;;;;;;;;;18.38;66.91;100146.63;2101297;27;19931;-48
2022/11/11 06:00:38;;;;;;;;;;;;;;;18.38;66.94;100145.81;2101893;28;19942;-46
2022/11/11 06:01:41;;;;;;;;;;;;;;;18.39;66.99;100142.13;2100157;27;19927;-47
2022/11/11 06:02:41;;;;;;;;;;;;;;;18.39;66.93;100153.72;2102091;27;19924;-48
2022/11/11 06:03:43;;;;;;;;;;;;;;;18.39;67.00;100142.97;2097746;27;19923;-47
2022/11/11 06:04:44;;;;;;;;;;;;;;;18.39;67.01;100145.66;2109083;27;20427;-46
2022/11/11 06:05:45;;;;;;;;;;;;;;;18.41;66.89;100145.47;2109754;27;20521;-48
2022/11/11 06:06:46;;;;;;;;;;;;;;;18.40;66.72;100147.31;2102732;27;19920;-46
2022/11/11 06:07:53;;;;;;;;;;;;;;;18.41;66.55;100150.84;2099314;27;19928;-48
2022/11/11 06:08:55;;;;;;;;;;;;;;;18.41;66.83;100151.66;2099748;27;19920;-48
2022/11/11 06:10:29;;;;;;;;;;;;;;;18.42;66.96;100152.53;2098318;27;19927;-47
2022/11/11 06:11:17;;;;;;;;;;;;;;;18.42;66.58;100157.91;2105164;27;19953;-45
2022/11/11 06:12:17;;;;;;;;;;;;;;;18.43;66.94;100156.91;2110692;27;19939;-46
2022/11/11 06:13:19;;;;;;;;;;;;;;;18.43;67.06;100157.72;2101643;27;22423;-47
2022/11/11 06:14:19;;;;;;;;;;;;;;;18.44;66.83;100155.88;2101531;27;19928;-46
2022/11/11 06:15:22;;;;;;;;;;;;;;;18.44;66.61;100161.25;2102826;27;19926;-45
2022/11/11 06:16:23;;;;;;;;;;;;;;;18.44;66.77;100156.75;2103299;27;19929;-46
2022/11/11 06:17:25;;;;;;;;;;;;;;;18.45;66.99;100158.41;2100157;27;20714;-47
2022/11/11 06:18:26;;;;;;;;;;;;;;;18.44;66.87;100164.81;2097402;27;19924;-47
2022/11/11 06:19:27;;;;;;;;;;;;;;;18.46;66.71;100154.72;2099401;27;20549;-47
2022/11/11 06:20:28;;;;;;;;;;;;;;;18.47;66.84;100155.53;2101033;27;20398;-47
2022/11/11 06:21:30;;;;;;;;;;;;;;;18.46;66.59;100159.25;2101310;27;19928;-48
2022/11/11 06:23:49;;;;;;;;;;;;;;;18.46;67.00;100157.41;2099722;27;19920;-47
2022/11/11 06:26:11;;;;;;;;;;;;;;;18.46;66.75;100160.09;2101321;27;20437;-47
2022/11/11 06:26:15;;;;;;;;;;;;;;;18.47;66.71;100160.91;2092630;27;19951;-44
2022/11/11 06:27:16;;;;;;;;;;;;;;;18.45;66.50;100165.63;2098620;27;19928;-47
2022/11/11 06:28:17;;;;;;;;;;;;;;;18.47;66.96;100164.47;2101938;27;20836;-47
2022/11/11 06:29:18;;;;;;;;;;;;;;;18.46;66.58;100162.78;2100087;27;19924;-47